sensor_id;sensor_type;location;lat;lon;timestamp;P1;durP1;ratioP1;P2;durP2;ratioP2
51238;SDS011;38154;47.548;18.828;2023-02-15T00:01:19;8.00;;;4.90;;
51238;SDS011;38154;47.548;18.828;2023-02-15T00:03:47;3.03;;;2.72;;
51238;SDS011;38154;47.548;18.828;2023-02-15T00:06:14;10.82;;;3.80;;
51238;SDS011;38154;47.548;18.828;2023-02-15T00:08:40;6.57;;;2.85;;
51238;SDS011;38154;47.548;18.828;2023-02-15T00:11:10;6.37;;;3.43;;
51238;SDS011;38154;47.548;18.828;2023-02-15T00:13:38;5.53;;;3.20;;
51238;SDS011;38154;47.548;18.828;2023-02-15T00:16:08;3.33;;;2.67;;
51238;SDS011;38154;47.548;18.828;2023-02-15T00:18:36;5.65;;;2.90;;
51238;SDS011;38154;47.548;18.828;2023-02-15T00:21:04;9.52;;;3.47;;
51238;SDS011;38154;47.548;18.828;2023-02-15T00:23:32;2.17;;;2.08;;
51238;SDS011;38154;47.548;18.828;2023-02-15T00:28:31;6.00;;;4.00;;
51238;SDS011;38154;47.548;18.828;2023-02-15T00:31:04;4.78;;;2.80;;
51238;SDS011;38154;47.548;18.828;2023-02-15T00:33:34;4.75;;;3.45;;
51238;SDS011;38154;47.548;18.828;2023-02-15T00:36:00;5.60;;;3.03;;
51238;SDS011;38154;47.548;18.828;2023-02-15T00:38:27;5.22;;;3.20;;
51238;SDS011;38154;47.548;18.828;2023-02-15T00:40:57;6.40;;;3.22;;
51238;SDS011;38154;47.548;18.828;2023-02-15T00:43:24;3.75;;;2.03;;
51238;SDS011;38154;47.548;18.828;2023-02-15T00:45:51;6.30;;;2.97;;
51238;SDS011;38154;47.548;18.828;2023-02-15T00:48:17;3.25;;;2.85;;
51238;SDS011;38154;47.548;18.828;2023-02-15T00:53:10;7.65;;;3.37;;
51238;SDS011;38154;47.548;18.828;2023-02-15T00:55:36;8.93;;;4.07;;
51238;SDS011;38154;47.548;18.828;2023-02-15T00:58:02;3.70;;;3.40;;
51238;SDS011;38154;47.548;18.828;2023-02-15T01:00:28;1.83;;;1.73;;
51238;SDS011;38154;47.548;18.828;2023-02-15T01:02:54;6.10;;;3.87;;
51238;SDS011;38154;47.548;18.828;2023-02-15T01:05:20;4.47;;;2.92;;
51238;SDS011;38154;47.548;18.828;2023-02-15T01:07:45;6.87;;;4.45;;
51238;SDS011;38154;47.548;18.828;2023-02-15T01:10:11;8.25;;;3.20;;
51238;SDS011;38154;47.548;18.828;2023-02-15T01:12:37;11.80;;;5.18;;
51238;SDS011;38154;47.548;18.828;2023-02-15T01:15:03;4.70;;;2.75;;
51238;SDS011;38154;47.548;18.828;2023-02-15T01:17:30;8.88;;;4.22;;
51238;SDS011;38154;47.548;18.828;2023-02-15T01:19:56;4.93;;;3.22;;
51238;SDS011;38154;47.548;18.828;2023-02-15T01:22:22;6.78;;;2.70;;
51238;SDS011;38154;47.548;18.828;2023-02-15T01:24:48;5.85;;;3.20;;
51238;SDS011;38154;47.548;18.828;2023-02-15T01:29:41;2.50;;;2.25;;
51238;SDS011;38154;47.548;18.828;2023-02-15T01:32:07;3.17;;;2.70;;
51238;SDS011;38154;47.548;18.828;2023-02-15T01:34:33;5.47;;;4.00;;
51238;SDS011;38154;47.548;18.828;2023-02-15T01:36:59;7.80;;;3.35;;
51238;SDS011;38154;47.548;18.828;2023-02-15T01:39:25;6.75;;;3.70;;
51238;SDS011;38154;47.548;18.828;2023-02-15T01:41:50;6.00;;;3.10;;
51238;SDS011;38154;47.548;18.828;2023-02-15T01:44:40;5.72;;;4.03;;
51238;SDS011;38154;47.548;18.828;2023-02-15T01:47:09;11.80;;;2.60;;
51238;SDS011;38154;47.548;18.828;2023-02-15T01:49:37;6.43;;;2.87;;
51238;SDS011;38154;47.548;18.828;2023-02-15T01:52:07;5.70;;;3.42;;
51238;SDS011;38154;47.548;18.828;2023-02-15T01:54:35;5.87;;;2.72;;
51238;SDS011;38154;47.548;18.828;2023-02-15T01:57:04;6.37;;;2.95;;
51238;SDS011;38154;47.548;18.828;2023-02-15T01:59:34;6.20;;;2.97;;
51238;SDS011;38154;47.548;18.828;2023-02-15T02:02:03;6.25;;;2.95;;
51238;SDS011;38154;47.548;18.828;2023-02-15T02:04:34;7.07;;;3.67;;
51238;SDS011;38154;47.548;18.828;2023-02-15T02:07:05;3.78;;;2.75;;
51238;SDS011;38154;47.548;18.828;2023-02-15T02:11:58;6.80;;;3.22;;
51238;SDS011;38154;47.548;18.828;2023-02-15T02:14:24;8.48;;;3.78;;
51238;SDS011;38154;47.548;18.828;2023-02-15T02:27:09;9.10;;;2.97;;
51238;SDS011;38154;47.548;18.828;2023-02-15T02:35:35;3.78;;;3.15;;
51238;SDS011;38154;47.548;18.828;2023-02-15T02:41:11;5.78;;;3.10;;
51238;SDS011;38154;47.548;18.828;2023-02-15T02:46:32;5.20;;;3.37;;
51238;SDS011;38154;47.548;18.828;2023-02-15T02:49:02;4.87;;;2.90;;
51238;SDS011;38154;47.548;18.828;2023-02-15T02:51:28;7.47;;;3.05;;
51238;SDS011;38154;47.548;18.828;2023-02-15T02:53:54;7.35;;;2.80;;
51238;SDS011;38154;47.548;18.828;2023-02-15T02:56:38;8.50;;;3.55;;
51238;SDS011;38154;47.548;18.828;2023-02-15T02:59:16;4.82;;;2.78;;
51238;SDS011;38154;47.548;18.828;2023-02-15T03:04:28;10.60;;;4.47;;
51238;SDS011;38154;47.548;18.828;2023-02-15T03:06:59;4.75;;;2.75;;
51238;SDS011;38154;47.548;18.828;2023-02-15T03:09:28;7.03;;;3.50;;
51238;SDS011;38154;47.548;18.828;2023-02-15T03:12:09;4.55;;;3.03;;
51238;SDS011;38154;47.548;18.828;2023-02-15T03:14:39;8.00;;;2.78;;
51238;SDS011;38154;47.548;18.828;2023-02-15T03:17:07;4.05;;;3.10;;
51238;SDS011;38154;47.548;18.828;2023-02-15T03:19:35;7.18;;;3.62;;
51238;SDS011;38154;47.548;18.828;2023-02-15T03:22:08;5.65;;;3.45;;
51238;SDS011;38154;47.548;18.828;2023-02-15T03:27:19;7.93;;;2.92;;
51238;SDS011;38154;47.548;18.828;2023-02-15T03:29:52;3.03;;;2.62;;
51238;SDS011;38154;47.548;18.828;2023-02-15T03:32:21;5.12;;;3.65;;
51238;SDS011;38154;47.548;18.828;2023-02-15T03:34:48;6.75;;;3.60;;
51238;SDS011;38154;47.548;18.828;2023-02-15T03:40:09;5.20;;;3.17;;
51238;SDS011;38154;47.548;18.828;2023-02-15T03:43:03;3.87;;;2.50;;
51238;SDS011;38154;47.548;18.828;2023-02-15T03:45:55;5.75;;;3.72;;
51238;SDS011;38154;47.548;18.828;2023-02-15T03:48:26;6.62;;;2.87;;
51238;SDS011;38154;47.548;18.828;2023-02-15T03:50:57;9.07;;;3.90;;
51238;SDS011;38154;47.548;18.828;2023-02-15T03:53:46;16.30;;;3.12;;
51238;SDS011;38154;47.548;18.828;2023-02-15T03:56:13;3.08;;;2.80;;
51238;SDS011;38154;47.548;18.828;2023-02-15T03:58:39;7.40;;;3.78;;
51238;SDS011;38154;47.548;18.828;2023-02-15T04:04:27;9.00;;;4.75;;
51238;SDS011;38154;47.548;18.828;2023-02-15T04:07:05;3.22;;;2.45;;
51238;SDS011;38154;47.548;18.828;2023-02-15T04:09:33;6.32;;;3.20;;
51238;SDS011;38154;47.548;18.828;2023-02-15T04:12:18;2.35;;;2.10;;
51238;SDS011;38154;47.548;18.828;2023-02-15T04:14:44;9.33;;;3.90;;
51238;SDS011;38154;47.548;18.828;2023-02-15T04:17:28;7.10;;;2.97;;
51238;SDS011;38154;47.548;18.828;2023-02-15T04:19:55;7.60;;;4.50;;
51238;SDS011;38154;47.548;18.828;2023-02-15T04:22:39;12.57;;;3.62;;
51238;SDS011;38154;47.548;18.828;2023-02-15T04:25:23;6.40;;;3.25;;
51238;SDS011;38154;47.548;18.828;2023-02-15T04:27:51;11.20;;;4.30;;
51238;SDS011;38154;47.548;18.828;2023-02-15T04:30:19;9.98;;;4.15;;
51238;SDS011;38154;47.548;18.828;2023-02-15T04:32:46;6.75;;;2.97;;
51238;SDS011;38154;47.548;18.828;2023-02-15T04:35:13;8.35;;;3.65;;
51238;SDS011;38154;47.548;18.828;2023-02-15T04:37:40;4.90;;;2.75;;
51238;SDS011;38154;47.548;18.828;2023-02-15T04:40:08;3.92;;;2.70;;
51238;SDS011;38154;47.548;18.828;2023-02-15T04:42:36;5.30;;;2.70;;
51238;SDS011;38154;47.548;18.828;2023-02-15T04:45:02;5.27;;;3.47;;
51238;SDS011;38154;47.548;18.828;2023-02-15T04:47:28;8.90;;;3.83;;
51238;SDS011;38154;47.548;18.828;2023-02-15T04:49:54;6.97;;;3.42;;
51238;SDS011;38154;47.548;18.828;2023-02-15T04:52:19;3.05;;;2.55;;
51238;SDS011;38154;47.548;18.828;2023-02-15T04:54:45;12.07;;;4.28;;
51238;SDS011;38154;47.548;18.828;2023-02-15T04:57:12;4.28;;;2.95;;
51238;SDS011;38154;47.548;18.828;2023-02-15T04:59:38;13.82;;;4.12;;
51238;SDS011;38154;47.548;18.828;2023-02-15T05:02:04;10.50;;;3.22;;
51238;SDS011;38154;47.548;18.828;2023-02-15T05:04:30;10.27;;;3.55;;
51238;SDS011;38154;47.548;18.828;2023-02-15T05:06:55;5.45;;;2.67;;
51238;SDS011;38154;47.548;18.828;2023-02-15T05:09:21;5.55;;;3.72;;
51238;SDS011;38154;47.548;18.828;2023-02-15T05:11:47;11.48;;;4.70;;
51238;SDS011;38154;47.548;18.828;2023-02-15T05:14:13;12.75;;;4.62;;
51238;SDS011;38154;47.548;18.828;2023-02-15T05:16:39;2.62;;;2.28;;
51238;SDS011;38154;47.548;18.828;2023-02-15T05:19:05;6.95;;;4.43;;
51238;SDS011;38154;47.548;18.828;2023-02-15T05:21:31;9.23;;;3.33;;
51238;SDS011;38154;47.548;18.828;2023-02-15T05:23:57;4.07;;;3.35;;
51238;SDS011;38154;47.548;18.828;2023-02-15T05:26:24;4.72;;;3.17;;
51238;SDS011;38154;47.548;18.828;2023-02-15T05:29:09;5.32;;;3.78;;
51238;SDS011;38154;47.548;18.828;2023-02-15T05:31:36;14.57;;;5.25;;
51238;SDS011;38154;47.548;18.828;2023-02-15T05:34:02;8.68;;;5.03;;
51238;SDS011;38154;47.548;18.828;2023-02-15T05:36:29;8.15;;;4.75;;
51238;SDS011;38154;47.548;18.828;2023-02-15T05:38:55;5.37;;;3.85;;
51238;SDS011;38154;47.548;18.828;2023-02-15T05:41:21;10.43;;;4.55;;
51238;SDS011;38154;47.548;18.828;2023-02-15T05:43:47;7.30;;;3.12;;
51238;SDS011;38154;47.548;18.828;2023-02-15T05:46:13;11.10;;;4.72;;
51238;SDS011;38154;47.548;18.828;2023-02-15T05:48:39;7.78;;;4.97;;
51238;SDS011;38154;47.548;18.828;2023-02-15T05:51:12;12.40;;;5.37;;
51238;SDS011;38154;47.548;18.828;2023-02-15T05:53:42;6.62;;;3.65;;
51238;SDS011;38154;47.548;18.828;2023-02-15T05:56:08;7.30;;;3.93;;
51238;SDS011;38154;47.548;18.828;2023-02-15T05:58:36;15.30;;;5.25;;
51238;SDS011;38154;47.548;18.828;2023-02-15T06:01:10;7.30;;;3.20;;
51238;SDS011;38154;47.548;18.828;2023-02-15T06:03:38;6.30;;;2.83;;
51238;SDS011;38154;47.548;18.828;2023-02-15T06:06:04;3.37;;;2.97;;
51238;SDS011;38154;47.548;18.828;2023-02-15T06:10:58;14.95;;;3.87;;
51238;SDS011;38154;47.548;18.828;2023-02-15T06:13:24;5.32;;;3.05;;
51238;SDS011;38154;47.548;18.828;2023-02-15T06:15:50;6.22;;;3.65;;
51238;SDS011;38154;47.548;18.828;2023-02-15T06:18:16;9.63;;;4.03;;
51238;SDS011;38154;47.548;18.828;2023-02-15T06:20:41;4.80;;;3.35;;
51238;SDS011;38154;47.548;18.828;2023-02-15T06:23:07;4.65;;;2.78;;
51238;SDS011;38154;47.548;18.828;2023-02-15T06:25:33;4.85;;;3.95;;
51238;SDS011;38154;47.548;18.828;2023-02-15T06:27:59;3.85;;;2.83;;
51238;SDS011;38154;47.548;18.828;2023-02-15T06:30:25;8.95;;;3.10;;
51238;SDS011;38154;47.548;18.828;2023-02-15T06:32:51;5.95;;;2.53;;
51238;SDS011;38154;47.548;18.828;2023-02-15T06:35:17;8.10;;;4.82;;
51238;SDS011;38154;47.548;18.828;2023-02-15T06:37:44;5.60;;;3.75;;
51238;SDS011;38154;47.548;18.828;2023-02-15T06:40:11;5.90;;;3.28;;
51238;SDS011;38154;47.548;18.828;2023-02-15T06:42:37;7.28;;;3.30;;
51238;SDS011;38154;47.548;18.828;2023-02-15T06:45:03;6.20;;;4.43;;
51238;SDS011;38154;47.548;18.828;2023-02-15T06:47:29;10.77;;;4.15;;
51238;SDS011;38154;47.548;18.828;2023-02-15T06:49:55;10.45;;;5.05;;
51238;SDS011;38154;47.548;18.828;2023-02-15T06:52:21;8.00;;;3.70;;
51238;SDS011;38154;47.548;18.828;2023-02-15T06:54:47;10.77;;;4.57;;
51238;SDS011;38154;47.548;18.828;2023-02-15T06:57:13;10.20;;;3.90;;
51238;SDS011;38154;47.548;18.828;2023-02-15T06:59:38;6.30;;;2.92;;
51238;SDS011;38154;47.548;18.828;2023-02-15T07:02:05;13.00;;;4.75;;
51238;SDS011;38154;47.548;18.828;2023-02-15T07:04:30;9.30;;;5.07;;
51238;SDS011;38154;47.548;18.828;2023-02-15T07:06:56;8.30;;;4.35;;
51238;SDS011;38154;47.548;18.828;2023-02-15T07:09:23;10.67;;;4.60;;
51238;SDS011;38154;47.548;18.828;2023-02-15T07:11:49;12.67;;;4.53;;
51238;SDS011;38154;47.548;18.828;2023-02-15T07:14:33;9.77;;;4.72;;
51238;SDS011;38154;47.548;18.828;2023-02-15T07:16:59;14.32;;;5.10;;
51238;SDS011;38154;47.548;18.828;2023-02-15T07:19:25;12.73;;;5.67;;
51238;SDS011;38154;47.548;18.828;2023-02-15T07:21:51;11.30;;;6.07;;
51238;SDS011;38154;47.548;18.828;2023-02-15T07:24:17;12.47;;;5.30;;
51238;SDS011;38154;47.548;18.828;2023-02-15T07:26:43;8.88;;;5.45;;
51238;SDS011;38154;47.548;18.828;2023-02-15T07:29:09;52.00;;;22.30;;
51238;SDS011;38154;47.548;18.828;2023-02-15T07:31:35;37.43;;;13.13;;
51238;SDS011;38154;47.548;18.828;2023-02-15T07:34:01;47.53;;;20.17;;
51238;SDS011;38154;47.548;18.828;2023-02-15T07:36:27;54.57;;;22.23;;
51238;SDS011;38154;47.548;18.828;2023-02-15T07:38:53;41.90;;;16.37;;
51238;SDS011;38154;47.548;18.828;2023-02-15T07:41:18;47.93;;;18.43;;
51238;SDS011;38154;47.548;18.828;2023-02-15T07:43:44;42.87;;;17.77;;
51238;SDS011;38154;47.548;18.828;2023-02-15T07:46:12;41.45;;;16.83;;
51238;SDS011;38154;47.548;18.828;2023-02-15T07:48:40;79.53;;;32.25;;
51238;SDS011;38154;47.548;18.828;2023-02-15T07:51:08;67.65;;;28.87;;
51238;SDS011;38154;47.548;18.828;2023-02-15T07:53:35;53.80;;;21.67;;
51238;SDS011;38154;47.548;18.828;2023-02-15T07:56:03;77.97;;;33.63;;
51238;SDS011;38154;47.548;18.828;2023-02-15T07:58:32;75.87;;;32.03;;
51238;SDS011;38154;47.548;18.828;2023-02-15T08:01:17;67.05;;;24.85;;
51238;SDS011;38154;47.548;18.828;2023-02-15T08:03:45;34.00;;;17.83;;
51238;SDS011;38154;47.548;18.828;2023-02-15T08:06:11;17.52;;;9.75;;
51238;SDS011;38154;47.548;18.828;2023-02-15T08:08:39;22.92;;;9.93;;
51238;SDS011;38154;47.548;18.828;2023-02-15T08:13:57;15.75;;;7.97;;
51238;SDS011;38154;47.548;18.828;2023-02-15T08:16:29;14.57;;;8.43;;
51238;SDS011;38154;47.548;18.828;2023-02-15T08:19:05;21.17;;;9.02;;
51238;SDS011;38154;47.548;18.828;2023-02-15T08:21:36;21.48;;;8.45;;
51238;SDS011;38154;47.548;18.828;2023-02-15T08:24:08;21.80;;;9.57;;
51238;SDS011;38154;47.548;18.828;2023-02-15T08:26:35;21.92;;;9.70;;
51238;SDS011;38154;47.548;18.828;2023-02-15T08:29:02;22.70;;;10.23;;
51238;SDS011;38154;47.548;18.828;2023-02-15T08:31:29;27.67;;;10.90;;
51238;SDS011;38154;47.548;18.828;2023-02-15T08:33:55;21.27;;;10.88;;
51238;SDS011;38154;47.548;18.828;2023-02-15T08:36:23;26.35;;;10.63;;
51238;SDS011;38154;47.548;18.828;2023-02-15T08:38:50;25.58;;;10.63;;
51238;SDS011;38154;47.548;18.828;2023-02-15T08:43:45;16.27;;;8.50;;
51238;SDS011;38154;47.548;18.828;2023-02-15T08:46:16;21.35;;;9.48;;
51238;SDS011;38154;47.548;18.828;2023-02-15T08:48:43;22.85;;;10.95;;
51238;SDS011;38154;47.548;18.828;2023-02-15T08:51:17;21.05;;;9.93;;
51238;SDS011;38154;47.548;18.828;2023-02-15T08:53:46;19.62;;;9.95;;
51238;SDS011;38154;47.548;18.828;2023-02-15T08:56:18;18.27;;;9.40;;
51238;SDS011;38154;47.548;18.828;2023-02-15T08:58:45;21.87;;;9.05;;
51238;SDS011;38154;47.548;18.828;2023-02-15T09:01:13;15.48;;;9.07;;
51238;SDS011;38154;47.548;18.828;2023-02-15T09:03:44;17.77;;;8.00;;
51238;SDS011;38154;47.548;18.828;2023-02-15T09:06:11;19.65;;;8.30;;
51238;SDS011;38154;47.548;18.828;2023-02-15T09:08:37;19.17;;;8.10;;
51238;SDS011;38154;47.548;18.828;2023-02-15T09:11:25;17.95;;;8.50;;
51238;SDS011;38154;47.548;18.828;2023-02-15T09:13:53;22.15;;;8.68;;
51238;SDS011;38154;47.548;18.828;2023-02-15T09:16:21;23.20;;;11.23;;
51238;SDS011;38154;47.548;18.828;2023-02-15T09:18:48;18.77;;;9.93;;
51238;SDS011;38154;47.548;18.828;2023-02-15T09:21:16;22.90;;;10.02;;
51238;SDS011;38154;47.548;18.828;2023-02-15T09:23:44;16.08;;;8.75;;
51238;SDS011;38154;47.548;18.828;2023-02-15T09:26:13;18.20;;;8.27;;
51238;SDS011;38154;47.548;18.828;2023-02-15T09:28:42;17.67;;;8.57;;
51238;SDS011;38154;47.548;18.828;2023-02-15T09:31:09;21.60;;;8.55;;
51238;SDS011;38154;47.548;18.828;2023-02-15T09:33:41;16.40;;;8.80;;
51238;SDS011;38154;47.548;18.828;2023-02-15T09:36:18;16.42;;;8.13;;
51238;SDS011;38154;47.548;18.828;2023-02-15T09:38:46;17.58;;;8.05;;
51238;SDS011;38154;47.548;18.828;2023-02-15T09:57:42;16.33;;;8.40;;
51238;SDS011;38154;47.548;18.828;2023-02-15T10:17:23;20.00;;;9.25;;
51238;SDS011;38154;47.548;18.828;2023-02-15T10:27:45;24.00;;;9.50;;
51238;SDS011;38154;47.548;18.828;2023-02-15T10:38:21;19.50;;;8.27;;
51238;SDS011;38154;47.548;18.828;2023-02-15T10:46:32;19.73;;;8.93;;
51238;SDS011;38154;47.548;18.828;2023-02-15T10:54:37;17.40;;;7.40;;
51238;SDS011;38154;47.548;18.828;2023-02-15T11:00:23;18.35;;;9.18;;
51238;SDS011;38154;47.548;18.828;2023-02-15T11:03:14;17.77;;;7.95;;
51238;SDS011;38154;47.548;18.828;2023-02-15T11:08:41;14.82;;;6.72;;
51238;SDS011;38154;47.548;18.828;2023-02-15T11:11:11;16.20;;;7.93;;
51238;SDS011;38154;47.548;18.828;2023-02-15T11:13:43;14.87;;;7.57;;
51238;SDS011;38154;47.548;18.828;2023-02-15T11:16:14;17.05;;;7.62;;
51238;SDS011;38154;47.548;18.828;2023-02-15T11:18:48;15.48;;;7.10;;
51238;SDS011;38154;47.548;18.828;2023-02-15T11:21:20;21.65;;;8.95;;
51238;SDS011;38154;47.548;18.828;2023-02-15T11:23:49;23.38;;;9.35;;
51238;SDS011;38154;47.548;18.828;2023-02-15T11:29:25;17.50;;;7.90;;
51238;SDS011;38154;47.548;18.828;2023-02-15T11:31:59;15.82;;;8.15;;
51238;SDS011;38154;47.548;18.828;2023-02-15T11:34:31;21.17;;;9.20;;
51238;SDS011;38154;47.548;18.828;2023-02-15T11:37:04;20.55;;;8.70;;
51238;SDS011;38154;47.548;18.828;2023-02-15T11:39:35;17.73;;;8.20;;
51238;SDS011;38154;47.548;18.828;2023-02-15T11:42:04;21.73;;;8.27;;
51238;SDS011;38154;47.548;18.828;2023-02-15T11:44:46;25.02;;;9.60;;
51238;SDS011;38154;47.548;18.828;2023-02-15T11:47:14;21.55;;;8.70;;
51238;SDS011;38154;47.548;18.828;2023-02-15T11:49:40;20.00;;;9.35;;
51238;SDS011;38154;47.548;18.828;2023-02-15T11:52:15;20.50;;;8.43;;
51238;SDS011;38154;47.548;18.828;2023-02-15T11:54:44;20.98;;;7.22;;
51238;SDS011;38154;47.548;18.828;2023-02-15T11:59:38;24.87;;;9.47;;
51238;SDS011;38154;47.548;18.828;2023-02-15T12:02:18;23.50;;;8.77;;
51238;SDS011;38154;47.548;18.828;2023-02-15T12:04:48;18.10;;;8.70;;
51238;SDS011;38154;47.548;18.828;2023-02-15T12:10:04;19.55;;;9.23;;
51238;SDS011;38154;47.548;18.828;2023-02-15T12:12:42;21.23;;;9.32;;
51238;SDS011;38154;47.548;18.828;2023-02-15T12:15:10;17.67;;;7.40;;
51238;SDS011;38154;47.548;18.828;2023-02-15T12:17:52;20.00;;;7.82;;
51238;SDS011;38154;47.548;18.828;2023-02-15T12:20:21;14.13;;;7.55;;
51238;SDS011;38154;47.548;18.828;2023-02-15T12:22:54;18.42;;;7.68;;
51238;SDS011;38154;47.548;18.828;2023-02-15T12:25:32;18.12;;;7.65;;
51238;SDS011;38154;47.548;18.828;2023-02-15T12:27:59;13.88;;;7.03;;
51238;SDS011;38154;47.548;18.828;2023-02-15T12:33:13;17.50;;;7.70;;
51238;SDS011;38154;47.548;18.828;2023-02-15T12:35:40;15.52;;;8.18;;
51238;SDS011;38154;47.548;18.828;2023-02-15T12:41:03;18.70;;;8.88;;
51238;SDS011;38154;47.548;18.828;2023-02-15T12:43:45;15.25;;;7.05;;
51238;SDS011;38154;47.548;18.828;2023-02-15T12:46:19;14.37;;;7.50;;
51238;SDS011;38154;47.548;18.828;2023-02-15T12:48:49;19.80;;;7.78;;
51238;SDS011;38154;47.548;18.828;2023-02-15T12:51:32;18.80;;;8.77;;
51238;SDS011;38154;47.548;18.828;2023-02-15T12:57:23;16.42;;;7.10;;
51238;SDS011;38154;47.548;18.828;2023-02-15T13:07:35;14.35;;;6.93;;
51238;SDS011;38154;47.548;18.828;2023-02-15T13:10:02;15.85;;;7.28;;
51238;SDS011;38154;47.548;18.828;2023-02-15T13:12:29;18.62;;;8.25;;
51238;SDS011;38154;47.548;18.828;2023-02-15T13:14:57;17.55;;;8.30;;
51238;SDS011;38154;47.548;18.828;2023-02-15T13:17:28;21.08;;;7.47;;
51238;SDS011;38154;47.548;18.828;2023-02-15T13:20:16;21.73;;;8.52;;
51238;SDS011;38154;47.548;18.828;2023-02-15T13:22:46;14.13;;;6.25;;
51238;SDS011;38154;47.548;18.828;2023-02-15T13:25:17;15.15;;;6.00;;
51238;SDS011;38154;47.548;18.828;2023-02-15T13:27:50;18.02;;;8.40;;
51238;SDS011;38154;47.548;18.828;2023-02-15T13:30:26;21.80;;;8.77;;
51238;SDS011;38154;47.548;18.828;2023-02-15T13:32:58;19.90;;;8.27;;
51238;SDS011;38154;47.548;18.828;2023-02-15T13:35:28;26.35;;;7.80;;
51238;SDS011;38154;47.548;18.828;2023-02-15T13:40:44;17.70;;;7.97;;
51238;SDS011;38154;47.548;18.828;2023-02-15T13:43:27;14.05;;;6.60;;
51238;SDS011;38154;47.548;18.828;2023-02-15T13:51:24;16.27;;;6.15;;
51238;SDS011;38154;47.548;18.828;2023-02-15T14:02:24;17.70;;;7.60;;
51238;SDS011;38154;47.548;18.828;2023-02-15T14:11:20;17.58;;;8.30;;
51238;SDS011;38154;47.548;18.828;2023-02-15T14:16:39;14.95;;;6.80;;
51238;SDS011;38154;47.548;18.828;2023-02-15T14:30:22;24.83;;;9.32;;
51238;SDS011;38154;47.548;18.828;2023-02-15T14:32:53;15.50;;;7.82;;
51238;SDS011;38154;47.548;18.828;2023-02-15T14:35:24;16.85;;;7.20;;
51238;SDS011;38154;47.548;18.828;2023-02-15T14:41:04;23.75;;;7.97;;
51238;SDS011;38154;47.548;18.828;2023-02-15T14:46:38;17.80;;;7.55;;
51238;SDS011;38154;47.548;18.828;2023-02-15T14:49:19;19.25;;;7.78;;
51238;SDS011;38154;47.548;18.828;2023-02-15T14:56:45;19.23;;;8.73;;
51238;SDS011;38154;47.548;18.828;2023-02-15T15:01:58;23.17;;;9.90;;
51238;SDS011;38154;47.548;18.828;2023-02-15T15:04:38;23.08;;;9.45;;
51238;SDS011;38154;47.548;18.828;2023-02-15T15:09:38;18.98;;;7.70;;
51238;SDS011;38154;47.548;18.828;2023-02-15T15:12:35;24.02;;;8.52;;
51238;SDS011;38154;47.548;18.828;2023-02-15T15:15:03;21.87;;;9.07;;
51238;SDS011;38154;47.548;18.828;2023-02-15T15:20:04;22.95;;;10.23;;
51238;SDS011;38154;47.548;18.828;2023-02-15T15:22:33;21.17;;;8.40;;
51238;SDS011;38154;47.548;18.828;2023-02-15T15:25:01;21.12;;;9.27;;
51238;SDS011;38154;47.548;18.828;2023-02-15T15:41:03;20.62;;;8.48;;
51238;SDS011;38154;47.548;18.828;2023-02-15T15:49:06;21.60;;;8.60;;
51238;SDS011;38154;47.548;18.828;2023-02-15T15:51:37;25.05;;;10.00;;
51238;SDS011;38154;47.548;18.828;2023-02-15T15:54:05;25.15;;;8.77;;
51238;SDS011;38154;47.548;18.828;2023-02-15T15:56:33;27.70;;;10.90;;
51238;SDS011;38154;47.548;18.828;2023-02-15T15:59:02;20.10;;;9.43;;
51238;SDS011;38154;47.548;18.828;2023-02-15T16:01:38;34.28;;;11.40;;
51238;SDS011;38154;47.548;18.828;2023-02-15T16:04:11;31.80;;;12.90;;
51238;SDS011;38154;47.548;18.828;2023-02-15T16:06:48;57.40;;;20.15;;
51238;SDS011;38154;47.548;18.828;2023-02-15T16:11:49;44.00;;;18.65;;
51238;SDS011;38154;47.548;18.828;2023-02-15T16:14:39;58.28;;;19.98;;
51238;SDS011;38154;47.548;18.828;2023-02-15T16:17:06;46.80;;;18.57;;
51238;SDS011;38154;47.548;18.828;2023-02-15T16:19:41;36.58;;;14.57;;
51238;SDS011;38154;47.548;18.828;2023-02-15T16:22:29;33.78;;;15.85;;
51238;SDS011;38154;47.548;18.828;2023-02-15T16:27:50;27.87;;;11.38;;
51238;SDS011;38154;47.548;18.828;2023-02-15T16:32:54;29.23;;;12.50;;
51238;SDS011;38154;47.548;18.828;2023-02-15T16:35:28;28.73;;;11.48;;
51238;SDS011;38154;47.548;18.828;2023-02-15T16:37:54;39.35;;;11.70;;
51238;SDS011;38154;47.548;18.828;2023-02-15T16:42:52;28.48;;;10.40;;
51238;SDS011;38154;47.548;18.828;2023-02-15T16:45:22;25.73;;;11.07;;
51238;SDS011;38154;47.548;18.828;2023-02-15T16:47:55;27.00;;;11.25;;
51238;SDS011;38154;47.548;18.828;2023-02-15T16:50:23;31.60;;;9.55;;
51238;SDS011;38154;47.548;18.828;2023-02-15T16:52:55;28.02;;;8.38;;
51238;SDS011;38154;47.548;18.828;2023-02-15T16:55:24;25.08;;;11.20;;
51238;SDS011;38154;47.548;18.828;2023-02-15T16:57:52;28.20;;;11.23;;
51238;SDS011;38154;47.548;18.828;2023-02-15T17:00:25;27.42;;;10.38;;
51238;SDS011;38154;47.548;18.828;2023-02-15T17:05:47;21.10;;;9.48;;
51238;SDS011;38154;47.548;18.828;2023-02-15T17:08:16;24.17;;;9.07;;
51238;SDS011;38154;47.548;18.828;2023-02-15T17:19:01;19.23;;;9.20;;
51238;SDS011;38154;47.548;18.828;2023-02-15T17:21:42;23.42;;;10.60;;
51238;SDS011;38154;47.548;18.828;2023-02-15T17:24:33;20.70;;;7.95;;
51238;SDS011;38154;47.548;18.828;2023-02-15T17:27:05;22.10;;;9.68;;
51238;SDS011;38154;47.548;18.828;2023-02-15T17:29:39;19.60;;;8.30;;
51238;SDS011;38154;47.548;18.828;2023-02-15T17:32:13;21.92;;;9.80;;
51238;SDS011;38154;47.548;18.828;2023-02-15T17:39:53;24.73;;;10.43;;
51238;SDS011;38154;47.548;18.828;2023-02-15T17:42:19;26.12;;;11.60;;
51238;SDS011;38154;47.548;18.828;2023-02-15T17:44:45;23.98;;;9.27;;
51238;SDS011;38154;47.548;18.828;2023-02-15T17:47:18;30.77;;;10.63;;
51238;SDS011;38154;47.548;18.828;2023-02-15T17:49:47;24.75;;;9.82;;
51238;SDS011;38154;47.548;18.828;2023-02-15T17:52:16;21.02;;;9.07;;
51238;SDS011;38154;47.548;18.828;2023-02-15T17:54:43;26.30;;;10.40;;
51238;SDS011;38154;47.548;18.828;2023-02-15T17:57:28;27.23;;;9.20;;
51238;SDS011;38154;47.548;18.828;2023-02-15T17:59:55;25.15;;;10.85;;
51238;SDS011;38154;47.548;18.828;2023-02-15T18:02:40;21.27;;;8.15;;
51238;SDS011;38154;47.548;18.828;2023-02-15T18:05:26;22.60;;;9.70;;
51238;SDS011;38154;47.548;18.828;2023-02-15T18:08:12;17.35;;;8.90;;
51238;SDS011;38154;47.548;18.828;2023-02-15T18:10:58;22.25;;;9.10;;
51238;SDS011;38154;47.548;18.828;2023-02-15T18:13:43;21.25;;;9.75;;
51238;SDS011;38154;47.548;18.828;2023-02-15T18:16:22;17.62;;;8.82;;
51238;SDS011;38154;47.548;18.828;2023-02-15T18:18:51;20.90;;;9.05;;
51238;SDS011;38154;47.548;18.828;2023-02-15T18:21:18;19.17;;;8.38;;
51238;SDS011;38154;47.548;18.828;2023-02-15T18:23:44;28.85;;;11.30;;
51238;SDS011;38154;47.548;18.828;2023-02-15T18:26:12;24.37;;;9.65;;
51238;SDS011;38154;47.548;18.828;2023-02-15T18:28:43;18.92;;;8.85;;
51238;SDS011;38154;47.548;18.828;2023-02-15T18:31:09;19.77;;;8.25;;
51238;SDS011;38154;47.548;18.828;2023-02-15T18:33:38;19.62;;;7.90;;
51238;SDS011;38154;47.548;18.828;2023-02-15T18:36:07;23.42;;;10.38;;
51238;SDS011;38154;47.548;18.828;2023-02-15T18:38:41;20.75;;;9.30;;
51238;SDS011;38154;47.548;18.828;2023-02-15T18:41:09;28.70;;;10.90;;
51238;SDS011;38154;47.548;18.828;2023-02-15T18:43:41;23.12;;;8.73;;
51238;SDS011;38154;47.548;18.828;2023-02-15T18:46:07;14.02;;;7.55;;